createdAt,value
2017-10-19T00:00:23.684Z,1002.26
2017-10-19T00:01:04.199Z,1002.28
2017-10-19T00:01:44.652Z,1002.23
2017-10-19T00:02:25.120Z,1002.25
2017-10-19T00:03:05.587Z,1002.3
2017-10-19T00:03:46.036Z,1002.24
2017-10-19T00:04:26.464Z,1002.23
2017-10-19T00:05:06.892Z,1002.24
2017-10-19T00:05:47.377Z,1002.21
2017-10-19T00:08:05.253Z,1002.2
2017-10-19T00:08:45.661Z,1002.19
2017-10-19T00:09:26.143Z,1002.18
2017-10-19T00:10:06.605Z,1002.14
2017-10-19T00:10:47.050Z,1002.13
2017-10-19T00:11:27.526Z,1002.12
2017-10-19T00:12:07.982Z,1002.12
2017-10-19T00:12:48.408Z,1002.15
2017-10-19T00:13:28.879Z,1002.16
2017-10-19T00:14:09.344Z,1002.18
2017-10-19T00:14:49.829Z,1002.2
2017-10-19T00:15:30.254Z,1002.18
2017-10-19T00:16:10.705Z,1002.2
2017-10-19T00:16:51.180Z,1002.2
2017-10-19T00:17:31.589Z,1002.21
2017-10-19T00:18:12.037Z,1002.19
2017-10-19T00:18:52.461Z,1002.22
2017-10-19T00:19:32.924Z,1002.24
2017-10-19T00:20:13.350Z,1002.26
2017-10-19T00:20:53.810Z,1002.22
2017-10-19T00:21:34.290Z,1002.21
2017-10-19T00:22:14.730Z,1002.17
2017-10-19T00:22:55.196Z,1002.2
2017-10-19T00:23:35.669Z,1002.19
2017-10-19T00:24:16.101Z,1002.25
2017-10-19T00:24:56.546Z,1002.28
2017-10-19T00:25:36.978Z,1002.31
2017-10-19T00:26:17.390Z,1002.28
2017-10-19T00:26:57.833Z,1002.26
2017-10-19T00:28:50.379Z,1002.22
2017-10-19T00:29:30.851Z,1002.28
2017-10-19T00:30:11.245Z,1002.27
2017-10-19T00:30:51.800Z,1002.3
2017-10-19T00:31:32.204Z,1002.28
2017-10-19T00:32:12.610Z,1002.29
2017-10-19T00:32:53.065Z,1002.32
2017-10-19T00:33:33.569Z,1002.32
2017-10-19T00:36:01.492Z,1002.37
2017-10-19T00:36:41.990Z,1002.36
2017-10-19T00:37:22.452Z,1002.35
2017-10-19T00:38:02.920Z,1002.34
2017-10-19T00:38:43.413Z,1002.37
2017-10-19T00:39:23.866Z,1002.38
2017-10-19T00:40:04.381Z,1002.37
2017-10-19T00:40:44.851Z,1002.38
2017-10-19T00:41:25.342Z,1002.38
2017-10-19T00:42:05.845Z,1002.36
2017-10-19T00:42:46.300Z,1002.37
2017-10-19T00:43:26.783Z,1002.38
2017-10-19T00:44:07.331Z,1002.4
2017-10-19T00:44:47.745Z,1002.38
2017-10-19T00:45:28.244Z,1002.4
2017-10-19T00:46:08.704Z,1002.42
2017-10-19T00:46:49.154Z,1002.4
2017-10-19T00:47:29.652Z,1002.37
2017-10-19T00:48:10.089Z,1002.38
2017-10-19T00:48:50.586Z,1002.39
2017-10-19T00:49:31.057Z,1002.35
2017-10-19T00:50:11.533Z,1002.34
2017-10-19T00:50:52.048Z,1002.32
2017-10-19T00:51:32.449Z,1002.29
2017-10-19T00:52:12.914Z,1002.28
2017-10-19T00:52:53.334Z,1002.27
2017-10-19T00:53:33.812Z,1002.27
2017-10-19T00:54:14.223Z,1002.25
2017-10-19T00:54:54.717Z,1002.23
2017-10-19T00:55:35.174Z,1002.23
2017-10-19T00:56:15.617Z,1002.23
2017-10-19T00:56:56.050Z,1002.24
2017-10-19T00:57:36.490Z,1002.26
2017-10-19T00:58:16.928Z,1002.21
2017-10-19T00:58:57.357Z,1002.19
2017-10-19T00:59:37.769Z,1002.21
2017-10-19T01:00:18.220Z,1002.2
2017-10-19T01:00:58.673Z,1002.19
2017-10-19T01:01:39.133Z,1002.21
2017-10-19T01:02:19.550Z,1002.26
2017-10-19T01:03:00.033Z,1002.22
2017-10-19T01:03:40.502Z,1002.22
2017-10-19T01:04:20.955Z,1002.23
2017-10-19T01:05:01.405Z,1002.23
2017-10-19T01:05:41.874Z,1002.24
2017-10-19T01:06:22.357Z,1002.23
2017-10-19T01:07:02.877Z,1002.19
2017-10-19T01:07:43.351Z,1002.19
2017-10-19T01:09:40.954Z,1002.19
2017-10-19T01:10:21.405Z,1002.19
2017-10-19T01:11:01.864Z,1002.2
2017-10-19T01:11:42.325Z,1002.18
2017-10-19T01:12:22.787Z,1002.14
2017-10-19T01:14:40.647Z,1002.13
2017-10-19T01:15:21.080Z,1002.1
2017-10-19T01:16:01.546Z,1002.1
2017-10-19T01:16:42.080Z,1002.13
2017-10-19T01:17:22.493Z,1002.1
2017-10-19T01:19:40.283Z,1002.05
2017-10-19T01:20:20.783Z,1002.07
2017-10-19T01:21:01.294Z,1002.12
2017-10-19T01:21:41.827Z,1002.08
2017-10-19T01:22:22.266Z,1002.12
2017-10-19T01:23:02.709Z,1002.14
2017-10-19T01:23:43.161Z,1002.11
2017-10-19T01:24:23.612Z,1002.12
2017-10-19T01:25:04.067Z,1002.13
2017-10-19T01:25:44.503Z,1002.12
2017-10-19T01:26:24.962Z,1002.09
2017-10-19T01:27:05.430Z,1002.11
2017-10-19T01:27:45.847Z,1002.11
2017-10-19T01:28:26.332Z,1002.09
2017-10-19T01:29:06.776Z,1002.09
2017-10-19T01:29:47.217Z,1002.09
2017-10-19T01:31:39.792Z,1002.06
2017-10-19T01:32:20.234Z,1002.12
2017-10-19T01:33:00.689Z,1002.1
2017-10-19T01:33:41.165Z,1002.06
2017-10-19T01:34:21.611Z,1002.04
2017-10-19T01:35:02.074Z,1002.09
2017-10-19T01:35:42.498Z,1002.08
2017-10-19T01:37:55.225Z,1002.12
2017-10-19T01:38:35.709Z,1002.08
2017-10-19T01:39:16.190Z,1002.09
2017-10-19T01:39:56.683Z,1002.08
2017-10-19T01:40:37.118Z,1002.12
2017-10-19T01:41:17.554Z,1002.15
2017-10-19T01:41:58.018Z,1002.09
2017-10-19T01:44:15.846Z,1002.04
2017-10-19T01:44:56.315Z,1002.08
2017-10-19T01:45:36.820Z,1002.09
2017-10-19T01:46:17.244Z,1002.06
2017-10-19T01:46:57.713Z,1002.08
2017-10-19T01:49:15.565Z,1002.02
2017-10-19T01:49:56.007Z,1001.98
2017-10-19T01:50:36.451Z,1002.05
2017-10-19T01:51:16.940Z,1002
2017-10-19T01:51:57.432Z,1002.08
2017-10-19T01:52:37.889Z,1002.03
2017-10-19T01:53:18.336Z,1002.02
2017-10-19T01:53:58.784Z,1002.01
2017-10-19T01:54:39.249Z,1002.01
2017-10-19T01:55:19.697Z,1002.03
2017-10-19T01:57:37.545Z,1002.02
2017-10-19T01:58:17.989Z,1002.05
2017-10-19T01:58:58.412Z,1001.98
2017-10-19T01:59:38.852Z,1001.94
2017-10-19T02:00:19.324Z,1002
2017-10-19T02:00:59.765Z,1002
2017-10-19T02:01:40.226Z,1002.05
2017-10-19T02:02:20.677Z,1002.04
2017-10-19T02:03:01.114Z,1002.03
2017-10-19T02:03:41.557Z,1001.99
2017-10-19T02:04:22.005Z,1001.99
2017-10-19T02:05:02.470Z,1001.96
2017-10-19T02:05:42.916Z,1002.01
2017-10-19T02:06:23.369Z,1002.02
2017-10-19T02:07:03.847Z,1002.02
2017-10-19T02:07:44.340Z,1002.08
2017-10-19T02:09:36.887Z,1002.1
2017-10-19T02:10:17.355Z,1002.06
2017-10-19T02:10:57.821Z,1002.07
2017-10-19T02:11:38.295Z,1002.09
2017-10-19T02:12:18.735Z,1002.05
2017-10-19T02:12:59.192Z,1002.05
2017-10-19T02:13:39.639Z,1002.05
2017-10-19T02:14:20.138Z,1002.07
2017-10-19T02:15:00.624Z,1002.01
2017-10-19T02:15:41.091Z,1002.04
2017-10-19T02:17:58.889Z,1002.03
2017-10-19T02:18:39.393Z,1002.08
2017-10-19T02:19:19.954Z,1002.01
2017-10-19T02:20:00.377Z,1002
2017-10-19T02:20:40.913Z,1002.01
2017-10-19T02:21:21.397Z,1002.01
2017-10-19T02:22:01.833Z,1002.01
2017-10-19T02:22:42.262Z,1002
2017-10-19T02:23:22.717Z,1002.03
2017-10-19T02:24:03.181Z,1002.02
2017-10-19T02:24:43.592Z,1002.02
2017-10-19T02:25:24.052Z,1002.05
2017-10-19T02:27:36.751Z,1002.08
2017-10-19T02:28:17.245Z,1002.09
2017-10-19T02:28:57.706Z,1002.11
2017-10-19T02:29:38.209Z,1002.09
2017-10-19T02:30:18.702Z,1002.08
2017-10-19T02:30:59.143Z,1002.08
2017-10-19T02:31:39.623Z,1002.1
2017-10-19T02:32:20.071Z,1002.09
2017-10-19T02:33:00.538Z,1002.11
2017-10-19T02:33:40.956Z,1002.07
2017-10-19T02:34:21.441Z,1002.09
2017-10-19T02:35:01.891Z,1002.08
2017-10-19T02:35:42.327Z,1002.07
2017-10-19T02:36:22.736Z,1002.09
2017-10-19T02:37:03.189Z,1002.07
2017-10-19T02:37:43.629Z,1002.08
2017-10-19T02:38:24.066Z,1002.05
2017-10-19T02:39:04.520Z,1002.13
2017-10-19T02:39:44.959Z,1002.11
2017-10-19T02:40:25.388Z,1002.08
2017-10-19T02:41:05.838Z,1002.08
2017-10-19T02:41:46.330Z,1002.09
2017-10-19T02:42:26.830Z,1002.1
2017-10-19T02:43:07.241Z,1002.06
2017-10-19T02:43:47.682Z,1002.06
2017-10-19T02:44:28.128Z,1002.07
2017-10-19T02:45:08.559Z,1002.03
2017-10-19T02:45:49.037Z,1002.07
2017-10-19T02:46:29.521Z,1002.06
2017-10-19T02:47:09.930Z,1002.03
2017-10-19T02:47:50.388Z,1002.06
2017-10-19T02:48:30.833Z,1002
2017-10-19T02:49:11.347Z,1001.99
2017-10-19T02:49:51.806Z,1002.04
2017-10-19T02:50:32.268Z,1002.03
2017-10-19T02:51:12.765Z,1002.06
2017-10-19T02:51:53.189Z,1002.06
2017-10-19T02:52:33.634Z,1002.03
2017-10-19T02:53:14.076Z,1002.07
2017-10-19T02:53:54.543Z,1002.04
2017-10-19T02:54:34.998Z,1002.12
2017-10-19T02:55:15.466Z,1002.13
2017-10-19T02:55:55.890Z,1002.14
2017-10-19T02:56:36.374Z,1002.17
2017-10-19T02:57:16.798Z,1002.15
2017-10-19T02:57:57.266Z,1002.17
2017-10-19T02:58:37.706Z,1002.13
2017-10-19T02:59:18.147Z,1002.13
2017-10-19T02:59:58.613Z,1002.14
2017-10-19T03:00:39.063Z,1002.1
2017-10-19T03:01:19.525Z,1002.06
2017-10-19T03:02:00.075Z,1002.06
2017-10-19T03:02:40.486Z,1002.05
2017-10-19T03:03:20.963Z,1002.05
2017-10-19T03:04:01.422Z,1002.06
2017-10-19T03:04:41.877Z,1002.05
2017-10-19T03:05:22.375Z,1002.07
2017-10-19T03:06:02.798Z,1002.06
2017-10-19T03:06:43.301Z,1002.07
2017-10-19T03:07:23.753Z,1002.08
2017-10-19T03:08:04.244Z,1002.03
2017-10-19T03:08:44.719Z,1002.07
2017-10-19T03:09:25.144Z,1002.06
2017-10-19T03:10:05.641Z,1002.04
2017-10-19T03:10:46.108Z,1002.06
2017-10-19T03:11:26.600Z,1002.06
2017-10-19T03:12:07.012Z,1002.06
2017-10-19T03:12:47.450Z,1002.09
2017-10-19T03:13:27.918Z,1002.08
2017-10-19T03:14:08.387Z,1002.01
2017-10-19T03:14:48.831Z,1002.02
2017-10-19T03:15:29.317Z,1002
2017-10-19T03:16:09.775Z,1002.04
2017-10-19T03:16:50.222Z,1002.02
2017-10-19T03:17:30.705Z,1002.04
2017-10-19T03:18:11.201Z,1002.05
2017-10-19T03:18:51.684Z,1002.02
2017-10-19T03:19:32.116Z,1002.01
2017-10-19T03:20:12.619Z,1002.03
2017-10-19T03:20:53.059Z,1002.05
2017-10-19T03:21:33.491Z,1002.05
2017-10-19T03:22:13.950Z,1002.05
2017-10-19T03:24:06.514Z,1002.08
2017-10-19T03:26:34.412Z,1002.13
2017-10-19T03:27:14.910Z,1002.15
2017-10-19T03:27:55.377Z,1002.12
2017-10-19T03:28:35.826Z,1002.11
2017-10-19T03:29:16.319Z,1002.12
2017-10-19T03:29:56.818Z,1002.12
2017-10-19T03:30:37.287Z,1002.1
2017-10-19T03:31:17.763Z,1002.11
2017-10-19T03:31:58.247Z,1002.08
2017-10-19T03:32:38.729Z,1002.08
2017-10-19T03:33:19.187Z,1002.08
2017-10-19T03:33:59.653Z,1002.02
2017-10-19T03:34:40.074Z,1002
2017-10-19T03:35:20.539Z,1002.04
2017-10-19T03:36:00.951Z,1002.03
2017-10-19T03:36:41.432Z,1002.05
2017-10-19T03:38:34.003Z,1002.05
2017-10-19T03:39:14.465Z,1002.03
2017-10-19T03:39:54.974Z,1002.03
2017-10-19T03:40:35.387Z,1002
2017-10-19T03:41:15.854Z,1002.03
2017-10-19T03:43:13.459Z,1002.01
2017-10-19T03:45:26.265Z,1002.01
2017-10-19T03:46:06.710Z,1001.95
2017-10-19T03:46:47.184Z,1001.96
2017-10-19T03:47:27.644Z,1001.97
2017-10-19T03:48:08.086Z,1001.98
2017-10-19T03:50:00.663Z,1002.01
2017-10-19T03:50:41.141Z,1002.02
2017-10-19T03:51:21.646Z,1002.01
2017-10-19T03:52:02.074Z,1001.98
2017-10-19T03:52:42.530Z,1002.02
2017-10-19T03:53:22.998Z,1002.02
2017-10-19T03:54:03.413Z,1002.01
2017-10-19T03:54:43.881Z,1002.05
2017-10-19T03:55:24.337Z,1002.05
2017-10-19T03:56:04.795Z,1002.03
2017-10-19T03:56:45.233Z,1002.03
2017-10-19T03:57:25.687Z,1002.08
2017-10-19T03:58:06.136Z,1002.07
2017-10-19T03:58:46.594Z,1002.07
2017-10-19T03:59:27.082Z,1002.06
2017-10-19T04:00:07.507Z,1002.04
2017-10-19T04:02:05.171Z,1001.99
2017-10-19T04:02:45.620Z,1001.97
2017-10-19T04:03:26.078Z,1001.95
2017-10-19T04:04:06.559Z,1001.92
2017-10-19T04:04:47.054Z,1001.93
2017-10-19T04:05:27.510Z,1001.9
2017-10-19T04:06:07.984Z,1001.96
2017-10-19T04:06:48.442Z,1001.91
2017-10-19T04:07:28.860Z,1001.93
2017-10-19T04:08:09.387Z,1001.93
2017-10-19T04:08:49.795Z,1001.94
2017-10-19T04:11:02.519Z,1002
2017-10-19T04:11:43.027Z,1002.03
2017-10-19T04:12:23.529Z,1002.02
2017-10-19T04:13:03.982Z,1002.01
2017-10-19T04:13:44.453Z,1001.98
2017-10-19T04:14:24.936Z,1002.01
2017-10-19T04:15:05.403Z,1002.05
2017-10-19T04:15:45.853Z,1002.05
2017-10-19T04:16:26.296Z,1002.04
2017-10-19T04:17:06.718Z,1002.07
2017-10-19T04:17:47.426Z,1002.07
2017-10-19T04:18:27.908Z,1002.09
2017-10-19T04:19:08.339Z,1002.07
2017-10-19T04:19:48.805Z,1002.06
2017-10-19T04:20:29.244Z,1002.04
2017-10-19T04:21:09.724Z,1002.02
2017-10-19T04:21:50.137Z,1002.03
2017-10-19T04:22:30.594Z,1002.04
2017-10-19T04:23:11.046Z,1001.98
2017-10-19T04:23:51.478Z,1001.98
2017-10-19T04:24:31.933Z,1002
2017-10-19T04:25:12.460Z,1002.01
2017-10-19T04:25:52.905Z,1002.01
2017-10-19T04:26:33.356Z,1002.02
2017-10-19T04:27:14.008Z,1002.01
2017-10-19T04:27:54.491Z,1002.03
2017-10-19T04:28:34.939Z,1002.04
2017-10-19T04:29:15.380Z,1002.02
2017-10-19T04:29:55.829Z,1002
2017-10-19T04:31:48.735Z,1001.99
2017-10-19T04:32:29.221Z,1002
2017-10-19T04:33:09.737Z,1002.05
2017-10-19T04:33:50.193Z,1002.02
2017-10-19T04:34:30.633Z,1002.05
2017-10-19T04:35:11.110Z,1002.04
2017-10-19T04:35:51.534Z,1002.01
2017-10-19T04:38:04.266Z,1002.01
2017-10-19T04:38:44.756Z,1002.01
2017-10-19T04:39:25.188Z,1002
2017-10-19T04:41:22.763Z,1002.02
2017-10-19T04:42:03.226Z,1002.02
2017-10-19T04:42:43.689Z,1002.06
2017-10-19T04:43:24.130Z,1002.03
2017-10-19T04:44:04.627Z,1002.06
2017-10-19T04:44:45.035Z,1002.06
2017-10-19T04:45:25.517Z,1002.08
2017-10-19T04:46:05.966Z,1002.04
2017-10-19T04:46:46.427Z,1002.06
2017-10-19T04:47:26.870Z,1002.04
2017-10-19T04:48:07.351Z,1002.06
2017-10-19T04:48:47.775Z,1002.04
2017-10-19T04:49:28.261Z,1002.07
2017-10-19T04:50:08.695Z,1002.09
2017-10-19T04:50:49.159Z,1002.08
2017-10-19T04:53:17.045Z,1002.02
2017-10-19T04:53:57.538Z,1002.03
2017-10-19T04:54:38.033Z,1002
2017-10-19T04:55:18.497Z,1001.99
2017-10-19T04:55:58.954Z,1001.99
2017-10-19T04:56:39.470Z,1002.02
2017-10-19T04:57:19.952Z,1002.02
2017-10-19T04:58:00.426Z,1002.02
2017-10-19T04:58:40.834Z,1002.06
2017-10-19T04:59:21.294Z,1002.05
2017-10-19T05:00:01.772Z,1002.05
2017-10-19T05:00:42.259Z,1002.08
2017-10-19T05:01:22.679Z,1002.09
2017-10-19T05:02:03.109Z,1002.06
2017-10-19T05:02:43.590Z,1002.06
2017-10-19T05:03:24.044Z,1002.06
2017-10-19T05:04:04.486Z,1002.04
2017-10-19T05:04:44.944Z,1002.03
2017-10-19T05:05:25.472Z,1002.04
2017-10-19T05:06:05.899Z,1002.03
2017-10-19T05:08:03.568Z,1002.06
2017-10-19T05:08:44.019Z,1002.07
2017-10-19T05:09:24.533Z,1002.03
2017-10-19T05:10:04.996Z,1002.02
2017-10-19T05:10:45.448Z,1002.04
2017-10-19T05:12:43.073Z,1002.04
2017-10-19T05:13:23.693Z,1001.99
2017-10-19T05:14:04.100Z,1002.04
2017-10-19T05:16:32.050Z,1002.04
2017-10-19T05:17:12.520Z,1002.02
2017-10-19T05:17:53.002Z,1001.98
2017-10-19T05:18:33.478Z,1001.99
2017-10-19T05:19:14.000Z,1001.96
2017-10-19T05:19:54.448Z,1002
2017-10-19T05:20:34.860Z,1001.94
2017-10-19T05:23:02.841Z,1001.94
2017-10-19T05:23:43.235Z,1001.93
2017-10-19T05:24:23.690Z,1001.94
2017-10-19T05:25:04.156Z,1001.97
2017-10-19T05:25:44.628Z,1001.98
2017-10-19T05:26:25.100Z,1002.01
2017-10-19T05:27:05.570Z,1002.03
2017-10-19T05:27:46.012Z,1002
2017-10-19T05:28:26.506Z,1002.06
2017-10-19T05:29:06.936Z,1002.08
2017-10-19T05:31:24.747Z,1002.02
2017-10-19T05:32:05.215Z,1002.01
2017-10-19T05:32:45.696Z,1002
2017-10-19T05:33:26.128Z,1002.04
2017-10-19T05:34:06.582Z,1002.03
2017-10-19T05:34:47.026Z,1002
2017-10-19T05:35:27.517Z,1001.98
2017-10-19T05:36:08.112Z,1002
2017-10-19T05:36:48.585Z,1001.97
2017-10-19T05:37:29.116Z,1001.98
2017-10-19T05:38:09.574Z,1001.96
2017-10-19T05:38:50.065Z,1001.98
2017-10-19T05:39:30.572Z,1001.97
2017-10-19T05:40:11.129Z,1001.94
2017-10-19T05:40:51.693Z,1001.9
2017-10-19T05:41:32.192Z,1001.9
2017-10-19T05:42:12.785Z,1001.86
2017-10-19T05:42:53.236Z,1001.85
2017-10-19T05:45:11.060Z,1001.83
2017-10-19T05:45:51.567Z,1001.84
2017-10-19T05:46:32.158Z,1001.79
2017-10-19T05:47:12.681Z,1001.84
2017-10-19T05:47:53.155Z,1001.82
2017-10-19T05:50:05.978Z,1001.89
2017-10-19T05:50:46.444Z,1001.91
2017-10-19T05:51:27.013Z,1001.93
2017-10-19T05:52:07.501Z,1001.96
2017-10-19T05:52:47.998Z,1001.95
2017-10-19T05:53:28.430Z,1001.98
2017-10-19T05:54:08.900Z,1002.02
2017-10-19T05:54:49.370Z,1002.04
2017-10-19T05:55:29.794Z,1002.08
2017-10-19T05:56:10.218Z,1002.04
2017-10-19T05:56:50.705Z,1002.02
2017-10-19T05:57:31.132Z,1002.01
2017-10-19T05:58:11.582Z,1002.03
2017-10-19T05:58:52.058Z,1002.01
2017-10-19T05:59:32.491Z,1001.98
2017-10-19T06:00:12.985Z,1002
2017-10-19T06:00:53.483Z,1002.01
2017-10-19T06:01:34.021Z,1001.99
2017-10-19T06:02:14.505Z,1002.01
2017-10-19T06:02:54.964Z,1002
2017-10-19T06:03:35.392Z,1002.02
2017-10-19T06:05:53.244Z,1002.13
2017-10-19T06:06:33.748Z,1002.12
2017-10-19T06:07:14.201Z,1002.14
2017-10-19T06:07:54.728Z,1002.12
2017-10-19T06:08:35.152Z,1002.09
2017-10-19T06:09:15.573Z,1002.07
2017-10-19T06:09:56.088Z,1002.03
2017-10-19T06:10:36.543Z,1002.07
2017-10-19T06:11:16.965Z,1002.09
2017-10-19T06:11:57.467Z,1002.11
2017-10-19T06:12:38.005Z,1002.16
2017-10-19T06:13:18.415Z,1002.17
2017-10-19T06:13:58.878Z,1002.18
2017-10-19T06:14:39.294Z,1002.21
2017-10-19T06:15:19.733Z,1002.2
2017-10-19T06:16:00.229Z,1002.2
2017-10-19T06:16:40.676Z,1002.23
2017-10-19T06:17:21.185Z,1002.16
2017-10-19T06:18:01.672Z,1002.21
2017-10-19T06:18:42.143Z,1002.21
2017-10-19T06:19:22.576Z,1002.23
2017-10-19T06:20:03.027Z,1002.2
2017-10-19T06:20:43.478Z,1002.28
2017-10-19T06:22:56.267Z,1002.25
2017-10-19T06:23:36.677Z,1002.24
2017-10-19T06:24:17.166Z,1002.28
2017-10-19T06:26:34.978Z,1002.34
2017-10-19T06:27:15.417Z,1002.33
2017-10-19T06:27:55.902Z,1002.35
2017-10-19T06:28:36.456Z,1002.31
2017-10-19T06:29:16.890Z,1002.33
2017-10-19T06:29:57.383Z,1002.35
2017-10-19T06:30:37.831Z,1002.32
2017-10-19T06:31:18.319Z,1002.35
2017-10-19T06:33:15.873Z,1002.32
2017-10-19T06:33:56.313Z,1002.29
2017-10-19T06:34:36.768Z,1002.32
2017-10-19T06:35:17.210Z,1002.33
2017-10-19T06:35:57.645Z,1002.29
2017-10-19T06:36:38.110Z,1002.33
2017-10-19T06:37:18.630Z,1002.3
2017-10-19T06:37:59.039Z,1002.34
2017-10-19T06:38:39.473Z,1002.3
2017-10-19T06:39:19.936Z,1002.34
2017-10-19T06:40:00.403Z,1002.36
2017-10-19T06:40:40.840Z,1002.37
2017-10-19T06:41:21.307Z,1002.39
2017-10-19T06:42:01.791Z,1002.41
2017-10-19T06:42:42.265Z,1002.43
2017-10-19T06:44:39.932Z,1002.47
2017-10-19T06:45:20.390Z,1002.52
2017-10-19T06:46:00.864Z,1002.52
2017-10-19T06:46:41.321Z,1002.57
2017-10-19T06:47:21.768Z,1002.55
2017-10-19T06:48:02.220Z,1002.55
2017-10-19T06:48:42.672Z,1002.61
2017-10-19T06:51:00.442Z,1002.57
2017-10-19T06:51:40.943Z,1002.53
2017-10-19T06:52:21.397Z,1002.51
2017-10-19T06:53:01.943Z,1002.5
2017-10-19T06:53:42.418Z,1002.45
2017-10-19T06:54:22.879Z,1002.45
2017-10-19T06:55:03.377Z,1002.43
2017-10-19T06:55:43.840Z,1002.44
2017-10-19T06:56:24.269Z,1002.42
2017-10-19T06:57:04.742Z,1002.39
2017-10-19T06:57:45.219Z,1002.41
2017-10-19T06:58:25.692Z,1002.44
2017-10-19T06:59:06.158Z,1002.43
2017-10-19T06:59:46.617Z,1002.46
2017-10-19T07:00:27.072Z,1002.41
2017-10-19T07:01:07.522Z,1002.47
2017-10-19T07:01:47.982Z,1002.46
2017-10-19T07:02:28.460Z,1002.43
2017-10-19T07:03:08.908Z,1002.47
2017-10-19T07:03:49.376Z,1002.48
2017-10-19T07:04:29.928Z,1002.51
2017-10-19T07:05:10.462Z,1002.53
2017-10-19T07:07:28.237Z,1002.52
2017-10-19T07:08:08.711Z,1002.52
2017-10-19T07:08:49.177Z,1002.52
2017-10-19T07:09:29.662Z,1002.52
2017-10-19T07:10:10.161Z,1002.51
2017-10-19T07:10:50.617Z,1002.54
2017-10-19T07:11:31.077Z,1002.56
2017-10-19T07:12:11.651Z,1002.61
2017-10-19T07:12:52.131Z,1002.64
2017-10-19T07:13:32.576Z,1002.69
2017-10-19T07:14:13.032Z,1002.71
2017-10-19T07:14:53.516Z,1002.68
2017-10-19T07:15:33.948Z,1002.75
2017-10-19T07:16:14.395Z,1002.75
2017-10-19T07:16:54.817Z,1002.65
2017-10-19T07:19:07.548Z,1002.6
2017-10-19T07:19:47.997Z,1002.6
2017-10-19T07:20:28.424Z,1002.56
2017-10-19T07:21:08.873Z,1002.58
2017-10-19T07:21:49.388Z,1002.51
2017-10-19T07:22:29.793Z,1002.49
2017-10-19T07:23:10.292Z,1002.47
2017-10-19T07:23:50.716Z,1002.46
2017-10-19T07:24:31.174Z,1002.45
2017-10-19T07:25:11.605Z,1002.39
2017-10-19T07:25:52.074Z,1002.39
2017-10-19T07:26:32.609Z,1002.41
2017-10-19T07:27:13.124Z,1002.38
2017-10-19T07:27:53.577Z,1002.42
2017-10-19T07:28:34.101Z,1002.37
2017-10-19T07:29:14.552Z,1002.42
2017-10-19T07:29:55.031Z,1002.45
2017-10-19T07:30:35.454Z,1002.51
2017-10-19T07:31:15.901Z,1002.58
2017-10-19T07:31:56.320Z,1002.64
2017-10-19T07:32:36.873Z,1002.72
2017-10-19T07:33:17.449Z,1002.77
2017-10-19T07:33:58.701Z,1002.86
2017-10-19T07:34:39.362Z,1002.91
2017-10-19T07:35:20.043Z,1002.94
2017-10-19T07:36:00.714Z,1002.92
2017-10-19T07:36:41.337Z,1002.9
2017-10-19T07:37:21.974Z,1002.84
2017-10-19T07:38:02.578Z,1002.82
2017-10-19T07:38:43.166Z,1002.8
2017-10-19T07:39:23.771Z,1002.84
2017-10-19T07:40:04.252Z,1002.86
2017-10-19T07:40:44.765Z,1002.89
2017-10-19T07:41:25.222Z,1002.84
2017-10-19T07:42:05.671Z,1002.87
2017-10-19T07:42:46.202Z,1002.9
2017-10-19T07:43:26.673Z,1002.9
2017-10-19T07:44:07.196Z,1002.92
2017-10-19T07:44:47.654Z,1002.97
2017-10-19T07:45:28.135Z,1002.98
2017-10-19T07:46:08.588Z,1003.04
2017-10-19T07:46:49.053Z,1003.06
2017-10-19T07:47:29.582Z,1003.09
2017-10-19T07:48:10.040Z,1003.05
2017-10-19T07:48:50.525Z,1002.97
2017-10-19T07:49:31.031Z,1002.99
2017-10-19T07:50:12.125Z,1002.96
2017-10-19T07:52:40.076Z,1003.07
2017-10-19T07:53:20.598Z,1003.04
2017-10-19T07:54:01.072Z,1002.97
2017-10-19T07:54:41.598Z,1002.95
2017-10-19T07:55:22.063Z,1002.98
2017-10-19T07:56:02.556Z,1002.96
2017-10-19T07:56:43.029Z,1002.96
2017-10-19T07:57:23.478Z,1002.94
2017-10-19T07:58:03.942Z,1002.96
2017-10-19T07:58:44.572Z,1002.89
2017-10-19T07:59:25.033Z,1002.91
2017-10-19T08:00:05.530Z,1002.93
2017-10-19T08:00:45.984Z,1002.92
2017-10-19T08:01:26.534Z,1002.98
2017-10-19T08:02:07.018Z,1003.04
2017-10-19T08:04:04.777Z,1003.06
2017-10-19T08:04:45.181Z,1003.06
2017-10-19T08:05:25.647Z,1003.03
2017-10-19T08:06:06.053Z,1003.03
2017-10-19T08:06:46.504Z,1003.08
2017-10-19T08:07:27.062Z,1003.09
2017-10-19T08:09:40.074Z,1003.14
2017-10-19T08:10:20.692Z,1003.11
2017-10-19T08:11:01.128Z,1003.06
2017-10-19T08:11:41.716Z,1003.09
2017-10-19T08:13:34.269Z,1003.12
2017-10-19T08:14:14.722Z,1003.1
2017-10-19T08:14:55.233Z,1003.13
2017-10-19T08:15:35.762Z,1003.17
2017-10-19T08:16:16.213Z,1003.18
2017-10-19T08:16:56.706Z,1003.19
2017-10-19T08:17:37.216Z,1003.25
2017-10-19T08:18:17.693Z,1003.23
2017-10-19T08:20:15.400Z,1003.34
2017-10-19T08:20:55.907Z,1003.36
2017-10-19T08:21:36.448Z,1003.33
2017-10-19T08:22:17.246Z,1003.31
2017-10-19T08:22:57.902Z,1003.31
2017-10-19T08:23:38.411Z,1003.31
2017-10-19T08:24:18.971Z,1003.3
2017-10-19T08:24:59.563Z,1003.3
2017-10-19T08:25:40.160Z,1003.29
2017-10-19T08:26:20.811Z,1003.28
2017-10-19T08:27:01.259Z,1003.3
2017-10-19T08:27:41.811Z,1003.3
2017-10-19T08:29:34.373Z,1003.3
2017-10-19T08:30:14.849Z,1003.23
2017-10-19T08:30:55.306Z,1003.22
2017-10-19T08:31:35.895Z,1003.21
2017-10-19T08:32:16.438Z,1003.19
2017-10-19T08:32:56.899Z,1003.22
2017-10-19T08:33:37.409Z,1003.18
2017-10-19T08:34:17.901Z,1003.23
2017-10-19T08:34:58.363Z,1003.26
2017-10-19T08:35:38.899Z,1003.25
2017-10-19T08:36:19.457Z,1003.25
2017-10-19T08:38:37.364Z,1003.27
2017-10-19T08:39:17.818Z,1003.31
2017-10-19T08:39:58.300Z,1003.31
2017-10-19T08:40:38.823Z,1003.28
2017-10-19T08:41:19.313Z,1003.3
2017-10-19T08:41:59.820Z,1003.31
2017-10-19T08:42:40.271Z,1003.32
2017-10-19T08:43:20.755Z,1003.33
2017-10-19T08:44:01.219Z,1003.33
2017-10-19T08:44:41.703Z,1003.33
2017-10-19T08:45:22.244Z,1003.3
2017-10-19T08:46:02.765Z,1003.3
2017-10-19T08:46:43.231Z,1003.29
2017-10-19T08:47:23.791Z,1003.31
2017-10-19T08:48:04.252Z,1003.33
2017-10-19T08:48:44.855Z,1003.3
2017-10-19T08:49:25.387Z,1003.31
2017-10-19T08:50:05.862Z,1003.31
2017-10-19T08:50:46.322Z,1003.35
2017-10-19T08:51:26.845Z,1003.36
2017-10-19T08:52:07.351Z,1003.4
2017-10-19T08:52:47.822Z,1003.38
2017-10-19T08:53:28.254Z,1003.39
2017-10-19T08:54:08.792Z,1003.37
2017-10-19T08:54:49.328Z,1003.36
2017-10-19T08:55:29.894Z,1003.38
2017-10-19T08:56:10.484Z,1003.38
2017-10-19T08:56:51.155Z,1003.39
2017-10-19T08:57:31.718Z,1003.42
2017-10-19T08:58:12.241Z,1003.45
2017-10-19T08:58:52.764Z,1003.46
2017-10-19T08:59:33.245Z,1003.47
2017-10-19T09:00:13.768Z,1003.51
2017-10-19T09:00:54.308Z,1003.57
2017-10-19T09:03:22.324Z,1003.64
2017-10-19T09:04:02.821Z,1003.62
2017-10-19T09:04:43.291Z,1003.59
2017-10-19T09:05:23.766Z,1003.57
2017-10-19T09:06:04.203Z,1003.64
2017-10-19T09:06:44.689Z,1003.71
2017-10-19T09:07:25.168Z,1003.76
2017-10-19T09:08:05.632Z,1003.84
2017-10-19T09:08:46.076Z,1003.75
2017-10-19T09:09:26.545Z,1003.78
2017-10-19T09:10:07.002Z,1003.79
2017-10-19T09:11:59.546Z,1003.83
2017-10-19T09:12:40.026Z,1003.85
2017-10-19T09:13:20.509Z,1003.86
2017-10-19T09:14:01.010Z,1003.85
2017-10-19T09:16:18.820Z,1003.91
2017-10-19T09:16:59.296Z,1003.86
2017-10-19T09:17:39.889Z,1003.82
2017-10-19T09:18:20.282Z,1003.81
2017-10-19T09:19:00.877Z,1003.78
2017-10-19T09:19:41.514Z,1003.73
2017-10-19T09:20:22.253Z,1003.7
2017-10-19T09:21:02.932Z,1003.69
2017-10-19T09:21:43.393Z,1003.6
2017-10-19T09:22:23.831Z,1003.7
2017-10-19T09:23:04.336Z,1003.73
2017-10-19T09:23:44.868Z,1003.74
2017-10-19T09:24:25.372Z,1003.77
2017-10-19T09:25:05.851Z,1003.81
2017-10-19T09:25:46.273Z,1003.79
2017-10-19T09:26:26.753Z,1003.75
2017-10-19T09:27:07.202Z,1003.81
2017-10-19T09:27:47.691Z,1003.81